Time;durP1;ratioP1;P1;durP2;ratioP2;P2;SDS_P1;SDS_P2;PMS_P1;PMS_P2;Temp;Humidity;BMP_temperature;BMP_pressure;BME280_temperature;BME280_humidity;BME280_pressure;Samples;Min_cycle;Max_cycle;Signal;HPM_P1;HPM_P2
2021/12/08 00:01:25;;;;;;;2.30;0.68;;;;;;;;;;5053091;28;20457;-81
2021/12/08 00:03:55;;;;;;;2.65;1.00;;;;;;;;;;5041892;28;20047;-83
2021/12/08 00:06:23;;;;;;;3.10;0.50;;;;;;;;;;5058518;28;20155;-83
2021/12/08 00:09:17;;;;;;;4.47;0.75;;;;;;;;;;5076328;28;20044;-80
2021/12/08 00:15:08;;;;;;;1.90;0.60;;;;;;;;;;5022007;28;20054;-80
2021/12/08 00:21:33;;;;;;;1.92;0.50;;;;;;;;;;5075732;28;20050;-87
2021/12/08 00:24:01;;;;;;;2.38;0.50;;;;;;;;;;5058382;28;20071;-87
2021/12/08 00:26:32;;;;;;;2.05;0.57;;;;;;;;;;5042045;28;20036;-87
2021/12/08 00:29:00;;;;;;;3.55;0.77;;;;;;;;;;5058159;28;20158;-87
2021/12/08 00:31:28;;;;;;;1.70;0.47;;;;;;;;;;5058012;28;20583;-81
2021/12/08 00:33:57;;;;;;;0.75;0.40;;;;;;;;;;5075448;28;20044;-80
2021/12/08 00:36:32;;;;;;;1.10;0.52;;;;;;;;;;5040997;28;20057;-79
2021/12/08 00:38:59;;;;;;;2.85;0.88;;;;;;;;;;5040398;28;20411;-79
2021/12/08 00:41:28;;;;;;;1.05;0.50;;;;;;;;;;5020731;28;20095;-81
2021/12/08 00:44:00;;;;;;;2.65;0.68;;;;;;;;;;5037796;28;20041;-83
2021/12/08 00:46:28;;;;;;;4.15;0.60;;;;;;;;;;5036925;28;20561;-79
2021/12/08 00:48:55;;;;;;;3.58;0.73;;;;;;;;;;5037909;28;20041;-79
2021/12/08 00:51:23;;;;;;;3.58;0.70;;;;;;;;;;5037760;28;20396;-82
2021/12/08 00:53:51;;;;;;;2.10;0.70;;;;;;;;;;5034038;28;20132;-78
2021/12/08 00:56:19;;;;;;;0.60;0.40;;;;;;;;;;5002324;28;20046;-83
2021/12/08 00:58:50;;;;;;;1.48;0.30;;;;;;;;;;5035436;28;20117;-83
2021/12/08 01:01:28;;;;;;;3.55;0.70;;;;;;;;;;5017731;28;20044;-83
2021/12/08 01:03:56;;;;;;;1.75;0.60;;;;;;;;;;5001495;28;20041;-79
2021/12/08 01:06:26;;;;;;;2.00;0.93;;;;;;;;;;5034578;28;20412;-78
2021/12/08 01:08:54;;;;;;;1.38;0.60;;;;;;;;;;5018423;28;20045;-83
2021/12/08 01:11:24;;;;;;;1.38;0.40;;;;;;;;;;5001990;28;20141;-79
2021/12/08 01:13:51;;;;;;;3.50;2.08;;;;;;;;;;5017671;28;20053;-78
2021/12/08 01:16:21;;;;;;;1.33;1.02;;;;;;;;;;5000952;28;20045;-79
2021/12/08 01:18:49;;;;;;;1.17;0.52;;;;;;;;;;5034733;28;20037;-81
2021/12/08 01:21:18;;;;;;;1.20;0.52;;;;;;;;;;5017579;28;20484;-82
2021/12/08 01:23:46;;;;;;;1.60;0.68;;;;;;;;;;5018416;28;20121;-79
2021/12/08 01:26:17;;;;;;;0.95;0.50;;;;;;;;;;5017847;28;20091;-82
2021/12/08 01:28:44;;;;;;;0.50;0.50;;;;;;;;;;5017611;28;20076;-78
2021/12/08 01:31:12;;;;;;;1.83;0.73;;;;;;;;;;5017805;28;20045;-79
2021/12/08 01:33:40;;;;;;;1.30;0.47;;;;;;;;;;5017264;28;20106;-81
2021/12/08 01:36:08;;;;;;;1.70;0.60;;;;;;;;;;5001157;28;20054;-78
2021/12/08 01:38:36;;;;;;;4.93;0.90;;;;;;;;;;5034696;28;20041;-80
2021/12/08 01:41:04;;;;;;;3.47;0.98;;;;;;;;;;5016824;28;20043;-79
2021/12/08 01:43:42;;;;;;;1.90;0.60;;;;;;;;;;5034216;28;20056;-81
2021/12/08 01:46:14;;;;;;;3.03;0.60;;;;;;;;;;5000785;28;20140;-78
2021/12/08 01:48:47;;;;;;;3.13;0.63;;;;;;;;;;5035113;28;20037;-78
2021/12/08 01:51:17;;;;;;;3.75;0.60;;;;;;;;;;5035132;28;20332;-81
2021/12/08 01:53:46;;;;;;;1.83;0.63;;;;;;;;;;5016547;28;20056;-78
2021/12/08 01:56:14;;;;;;;1.83;0.70;;;;;;;;;;5034840;28;20511;-78
2021/12/08 01:58:42;;;;;;;3.28;0.68;;;;;;;;;;5034246;28;20049;-78
2021/12/08 02:01:11;;;;;;;1.35;0.60;;;;;;;;;;5017572;28;20041;-78
2021/12/08 02:03:50;;;;;;;2.08;0.77;;;;;;;;;;5017527;28;20038;-79
2021/12/08 02:06:18;;;;;;;1.70;0.70;;;;;;;;;;5034103;28;20041;-78
2021/12/08 02:08:52;;;;;;;2.05;0.77;;;;;;;;;;5017035;28;20400;-81
2021/12/08 02:11:21;;;;;;;1.25;0.60;;;;;;;;;;5016485;28;20069;-80
2021/12/08 02:13:59;;;;;;;0.82;0.65;;;;;;;;;;5016638;28;20068;-78
2021/12/08 02:16:28;;;;;;;3.60;0.70;;;;;;;;;;5016081;28;20525;-83
2021/12/08 02:19:00;;;;;;;5.97;1.48;;;;;;;;;;5017097;28;20037;-78
2021/12/08 02:21:29;;;;;;;1.00;0.80;;;;;;;;;;5016275;28;20044;-78
2021/12/08 02:23:58;;;;;;;1.42;0.60;;;;;;;;;;5016339;28;20044;-83
2021/12/08 02:26:28;;;;;;;2.25;0.77;;;;;;;;;;5016113;28;20072;-78
2021/12/08 02:28:57;;;;;;;3.40;1.00;;;;;;;;;;5032344;28;20052;-78
2021/12/08 02:31:36;;;;;;;3.22;1.00;;;;;;;;;;5033968;28;20049;-78
2021/12/08 02:48:07;;;;;;;1.70;1.08;;;;;;;;;;5032639;28;20041;-82
2021/12/08 02:50:38;;;;;;;2.78;1.15;;;;;;;;;;4999260;28;20504;-79
2021/12/08 02:53:07;;;;;;;4.50;1.30;;;;;;;;;;5046690;28;20106;-78
2021/12/08 02:55:35;;;;;;;2.03;1.13;;;;;;;;;;5035682;28;20055;-78
2021/12/08 02:58:04;;;;;;;5.45;0.98;;;;;;;;;;5019277;28;20041;-80
2021/12/08 03:00:35;;;;;;;2.20;1.00;;;;;;;;;;5035184;28;20041;-83
2021/12/08 03:03:06;;;;;;;2.95;1.33;;;;;;;;;;5035230;28;20507;-79
2021/12/08 03:05:37;;;;;;;2.10;1.17;;;;;;;;;;5018706;28;20110;-78
2021/12/08 03:08:06;;;;;;;3.83;1.10;;;;;;;;;;5053069;28;20045;-82
2021/12/08 03:10:45;;;;;;;2.67;0.90;;;;;;;;;;5018802;28;20567;-82
2021/12/08 03:13:16;;;;;;;2.47;1.00;;;;;;;;;;5018454;28;20515;-79
2021/12/08 03:15:44;;;;;;;3.00;1.38;;;;;;;;;;5035326;28;20488;-78
2021/12/08 03:18:12;;;;;;;2.47;1.20;;;;;;;;;;5018841;28;20055;-79
2021/12/08 03:20:46;;;;;;;4.82;1.75;;;;;;;;;;5035028;28;20552;-79
2021/12/08 03:23:30;;;;;;;5.15;1.70;;;;;;;;;;5036519;28;20033;-83
2021/12/08 03:26:01;;;;;;;3.60;1.70;;;;;;;;;;5052901;28;20095;-83
2021/12/08 03:28:33;;;;;;;2.78;1.70;;;;;;;;;;5035542;28;20083;-82
2021/12/08 03:31:06;;;;;;;14.33;1.83;;;;;;;;;;5034764;28;20426;-78
2021/12/08 03:33:44;;;;;;;5.70;1.83;;;;;;;;;;5035002;28;20319;-80
2021/12/08 03:36:13;;;;;;;3.13;1.38;;;;;;;;;;5035073;28;20504;-79
2021/12/08 03:38:44;;;;;;;5.43;1.85;;;;;;;;;;5052989;28;20476;-81
2021/12/08 03:41:12;;;;;;;6.82;1.33;;;;;;;;;;5018866;28;20084;-79
2021/12/08 03:43:40;;;;;;;4.25;1.60;;;;;;;;;;5035124;28;20037;-81
2021/12/08 03:46:12;;;;;;;3.20;2.05;;;;;;;;;;5034899;28;20073;-79
2021/12/08 03:48:49;;;;;;;5.13;1.70;;;;;;;;;;5036019;28;20616;-81
2021/12/08 03:51:18;;;;;;;3.20;1.83;;;;;;;;;;5018967;28;20049;-78
2021/12/08 03:53:48;;;;;;;6.43;3.15;;;;;;;;;;5034593;28;20434;-80
2021/12/08 03:56:16;;;;;;;7.95;4.70;;;;;;;;;;5034808;28;20520;-81
2021/12/08 03:58:43;;;;;;;14.88;6.82;;;;;;;;;;5035097;28;20041;-83
2021/12/08 04:01:11;;;;;;;5.65;3.60;;;;;;;;;;5018364;28;20132;-83
2021/12/08 04:03:47;;;;;;;7.47;4.03;;;;;;;;;;5018550;28;20049;-78
2021/12/08 04:06:29;;;;;;;6.38;4.00;;;;;;;;;;5018617;28;20072;-80
2021/12/08 04:08:57;;;;;;;7.50;2.47;;;;;;;;;;5052423;28;20069;-78
2021/12/08 04:11:26;;;;;;;5.00;2.42;;;;;;;;;;5018474;28;20093;-83
2021/12/08 04:14:14;;;;;;;8.50;3.15;;;;;;;;;;5035055;28;20041;-79
2021/12/08 04:17:08;;;;;;;7.20;3.00;;;;;;;;;;5034965;28;20059;-82
2021/12/08 04:19:36;;;;;;;6.97;2.08;;;;;;;;;;5052660;28;20128;-78
2021/12/08 04:22:08;;;;;;;3.83;2.63;;;;;;;;;;5002046;28;20415;-82
2021/12/08 04:24:39;;;;;;;7.78;3.50;;;;;;;;;;5034838;28;20045;-78
2021/12/08 04:27:09;;;;;;;6.55;2.28;;;;;;;;;;5035157;28;20084;-78
2021/12/08 04:29:38;;;;;;;2.55;2.00;;;;;;;;;;5034927;28;20090;-78
2021/12/08 04:32:06;;;;;;;3.90;1.80;;;;;;;;;;5035263;28;20036;-83
2021/12/08 04:34:40;;;;;;;2.70;1.27;;;;;;;;;;5034839;28;20484;-79
2021/12/08 04:37:16;;;;;;;4.00;1.60;;;;;;;;;;5035206;28;20041;-79
2021/12/08 04:40:06;;;;;;;2.95;1.00;;;;;;;;;;5052455;28;20124;-78
2021/12/08 04:42:57;;;;;;;4.43;1.15;;;;;;;;;;5036927;28;20055;-79
2021/12/08 04:45:33;;;;;;;2.30;1.30;;;;;;;;;;5038196;28;20403;-78
2021/12/08 05:07:49;;;;;;;5.60;1.10;;;;;;;;;;5056557;28;20041;-83
2021/12/08 05:10:05;;;;;;;1.90;1.10;;;;;;;;;;5055667;28;20036;-78
2021/12/08 05:12:37;;;;;;;3.50;1.23;;;;;;;;;;5038039;28;20076;-78
2021/12/08 05:15:09;;;;;;;4.75;1.10;;;;;;;;;;5037627;28;20357;-81
2021/12/08 05:17:41;;;;;;;4.05;1.17;;;;;;;;;;5020827;28;20135;-78
2021/12/08 05:20:31;;;;;;;2.90;1.20;;;;;;;;;;5055522;28;20073;-81
2021/12/08 05:23:06;;;;;;;4.85;1.15;;;;;;;;;;5055538;28;20065;-79
2021/12/08 05:25:36;;;;;;;2.38;0.73;;;;;;;;;;5037431;28;20568;-81
2021/12/08 05:28:06;;;;;;;4.90;0.95;;;;;;;;;;5037760;28;20160;-80
2021/12/08 05:30:43;;;;;;;2.15;0.70;;;;;;;;;;5037228;28;20079;-79
2021/12/08 05:33:14;;;;;;;1.55;0.73;;;;;;;;;;5055069;28;20091;-79
2021/12/08 05:35:45;;;;;;;3.83;0.70;;;;;;;;;;5037454;28;20051;-81
2021/12/08 05:38:14;;;;;;;5.32;0.90;;;;;;;;;;5054825;28;20037;-83
2021/12/08 05:40:44;;;;;;;1.50;0.80;;;;;;;;;;5036902;28;20530;-79
2021/12/08 05:43:15;;;;;;;3.17;0.93;;;;;;;;;;5036597;28;20498;-79
2021/12/08 05:45:43;;;;;;;7.72;2.80;;;;;;;;;;5054864;28;20197;-83
2021/12/08 05:48:11;;;;;;;3.10;2.47;;;;;;;;;;5037196;28;20033;-84
2021/12/08 05:50:44;;;;;;;3.80;1.90;;;;;;;;;;5020488;28;20045;-81
2021/12/08 05:53:17;;;;;;;3.13;1.15;;;;;;;;;;5019310;28;20140;-83
2021/12/08 05:55:46;;;;;;;3.58;0.75;;;;;;;;;;5036740;28;20116;-83
2021/12/08 05:58:14;;;;;;;3.25;0.95;;;;;;;;;;5036271;28;20037;-79
2021/12/08 06:00:47;;;;;;;2.55;1.02;;;;;;;;;;5020340;28;20048;-79
2021/12/08 06:03:17;;;;;;;4.22;1.17;;;;;;;;;;5036730;28;20041;-79
2021/12/08 06:05:47;;;;;;;4.93;1.05;;;;;;;;;;5035945;28;20048;-84
2021/12/08 06:08:16;;;;;;;4.40;1.10;;;;;;;;;;5019934;28;20143;-79
2021/12/08 06:10:44;;;;;;;4.65;1.23;;;;;;;;;;5036511;28;20043;-80
2021/12/08 06:13:14;;;;;;;1.73;1.05;;;;;;;;;;5019681;28;20132;-80
2021/12/08 06:15:43;;;;;;;2.85;1.48;;;;;;;;;;5020314;28;20071;-80
2021/12/08 06:18:12;;;;;;;6.63;1.77;;;;;;;;;;5046355;28;20489;-83
2021/12/08 06:20:43;;;;;;;5.65;1.30;;;;;;;;;;5013916;28;20048;-79
2021/12/08 06:23:13;;;;;;;3.05;1.40;;;;;;;;;;5027621;28;20380;-83
2021/12/08 06:25:41;;;;;;;2.90;1.40;;;;;;;;;;5000230;28;20050;-82
2021/12/08 06:28:08;;;;;;;3.45;1.50;;;;;;;;;;5016319;28;20045;-83
2021/12/08 06:30:37;;;;;;;2.42;1.20;;;;;;;;;;5024563;28;20127;-81
2021/12/08 06:33:08;;;;;;;4.47;1.30;;;;;;;;;;5056105;28;20044;-80
2021/12/08 06:35:38;;;;;;;2.70;1.30;;;;;;;;;;5056087;28;20047;-83
2021/12/08 06:38:06;;;;;;;2.42;1.00;;;;;;;;;;5055763;28;20077;-80
2021/12/08 06:40:39;;;;;;;3.25;1.40;;;;;;;;;;5055959;28;20043;-80
2021/12/08 06:43:08;;;;;;;8.43;2.03;;;;;;;;;;5055660;28;20048;-82
2021/12/08 06:45:38;;;;;;;9.05;2.58;;;;;;;;;;5055618;28;20529;-81
2021/12/08 06:48:15;;;;;;;6.10;1.67;;;;;;;;;;5073598;28;20036;-80
2021/12/08 06:50:47;;;;;;;7.15;1.95;;;;;;;;;;5055972;28;20498;-82
2021/12/08 06:53:15;;;;;;;5.45;1.95;;;;;;;;;;5054775;28;20040;-82
2021/12/08 06:55:46;;;;;;;7.18;1.70;;;;;;;;;;5055467;28;20036;-80
2021/12/08 06:58:18;;;;;;;5.63;1.95;;;;;;;;;;5073386;28;20059;-80
2021/12/08 07:01:17;;;;;;;5.97;1.70;;;;;;;;;;5055439;28;20039;-84
2021/12/08 07:04:11;;;;;;;5.40;1.60;;;;;;;;;;5038303;28;20045;-84
2021/12/08 07:07:00;;;;;;;3.95;1.70;;;;;;;;;;5054649;28;20043;-83
2021/12/08 07:10:10;;;;;;;4.07;1.70;;;;;;;;;;5052701;28;20067;-80
2021/12/08 07:12:43;;;;;;;6.90;1.80;;;;;;;;;;5051941;28;20049;-84
2021/12/08 07:15:26;;;;;;;3.38;1.83;;;;;;;;;;5055114;28;20068;-85
2021/12/08 07:17:57;;;;;;;7.55;2.58;;;;;;;;;;5054771;28;20048;-85
2021/12/08 07:20:46;;;;;;;7.35;2.63;;;;;;;;;;5054987;28;20053;-81
2021/12/08 07:23:16;;;;;;;7.40;2.33;;;;;;;;;;5054514;28;20476;-85
2021/12/08 07:25:44;;;;;;;6.90;2.83;;;;;;;;;;5054899;28;20475;-84
2021/12/08 07:28:12;;;;;;;6.20;2.92;;;;;;;;;;5072777;28;20040;-83
2021/12/08 07:30:43;;;;;;;11.57;3.58;;;;;;;;;;5037969;28;20410;-80
2021/12/08 07:33:10;;;;;;;8.18;3.30;;;;;;;;;;5054436;28;20586;-86
2021/12/08 07:35:42;;;;;;;13.73;4.10;;;;;;;;;;5037627;28;20048;-80
2021/12/08 07:38:12;;;;;;;14.50;6.35;;;;;;;;;;5072794;28;20041;-88
2021/12/08 07:40:52;;;;;;;15.43;6.90;;;;;;;;;;5064048;28;20037;-88
2021/12/08 07:43:22;;;;;;;9.48;4.65;;;;;;;;;;5033219;28;20063;-90
2021/12/08 07:45:53;;;;;;;13.43;6.25;;;;;;;;;;5014944;28;20124;-81
2021/12/08 07:48:23;;;;;;;16.67;7.07;;;;;;;;;;5032872;28;20034;-86
2021/12/08 07:50:57;;;;;;;10.35;6.00;;;;;;;;;;5017307;28;20278;-85
2021/12/08 07:53:28;;;;;;;13.40;6.78;;;;;;;;;;5009164;28;20053;-83
2021/12/08 07:56:04;;;;;;;17.95;8.55;;;;;;;;;;5033112;28;20488;-84
2021/12/08 07:58:37;;;;;;;16.52;7.80;;;;;;;;;;5014934;28;20051;-79
2021/12/08 08:01:11;;;;;;;16.02;7.32;;;;;;;;;;5032275;28;20045;-79
2021/12/08 08:03:42;;;;;;;12.82;5.95;;;;;;;;;;5032394;28;20136;-85
2021/12/08 08:06:17;;;;;;;19.77;8.05;;;;;;;;;;5030748;28;20045;-80
2021/12/08 08:08:45;;;;;;;14.18;6.10;;;;;;;;;;5017945;28;20559;-85
2021/12/08 08:11:25;;;;;;;11.30;5.35;;;;;;;;;;5033139;28;20036;-81
2021/12/08 08:14:19;;;;;;;7.88;4.80;;;;;;;;;;5034630;28;20045;-83
2021/12/08 08:16:55;;;;;;;6.82;3.50;;;;;;;;;;5053739;28;20049;-84
2021/12/08 08:19:27;;;;;;;10.00;3.42;;;;;;;;;;5056142;28;20098;-84
2021/12/08 08:22:08;;;;;;;9.93;3.45;;;;;;;;;;5035065;28;20540;-78
2021/12/08 08:24:36;;;;;;;8.85;2.80;;;;;;;;;;5038478;28;20469;-85
2021/12/08 08:27:06;;;;;;;8.75;2.80;;;;;;;;;;5038749;28;20045;-83
2021/12/08 08:29:45;;;;;;;6.75;2.65;;;;;;;;;;5055987;28;20492;-84
2021/12/08 08:32:22;;;;;;;7.72;3.13;;;;;;;;;;5038356;28;20037;-83
2021/12/08 08:35:04;;;;;;;8.25;3.50;;;;;;;;;;5038341;28;20048;-86
2021/12/08 08:37:33;;;;;;;9.27;3.33;;;;;;;;;;5055951;28;20048;-84
2021/12/08 08:40:06;;;;;;;6.82;3.17;;;;;;;;;;5037885;28;20049;-85
2021/12/08 08:42:37;;;;;;;7.97;3.03;;;;;;;;;;5055166;28;20045;-81
2021/12/08 08:45:11;;;;;;;8.35;3.65;;;;;;;;;;5037868;28;20171;-85
2021/12/08 08:47:44;;;;;;;10.13;3.10;;;;;;;;;;5021079;28;20145;-86
2021/12/08 08:50:11;;;;;;;;;;;;;;;;;;5055695;28;20144;-81
2021/12/08 08:52:41;;;;;;;6.85;2.45;;;;;;;;;;5037303;28;20008;-86
2021/12/08 08:55:32;;;;;;;12.00;2.40;;;;;;;;;;5037535;28;20045;-86
2021/12/08 08:58:02;;;;;;;9.85;3.20;;;;;;;;;;5037424;28;20416;-82
2021/12/08 09:00:37;;;;;;;7.88;3.40;;;;;;;;;;5034302;28;20535;-85
2021/12/08 09:03:07;;;;;;;5.53;2.53;;;;;;;;;;5051490;28;20052;-84
2021/12/08 09:05:45;;;;;;;6.22;2.00;;;;;;;;;;5021929;28;20041;-86
2021/12/08 09:08:17;;;;;;;10.55;3.80;;;;;;;;;;5020770;28;20128;-85
2021/12/08 09:11:02;;;;;;;7.97;2.28;;;;;;;;;;5037363;28;20139;-85
2021/12/08 09:13:38;;;;;;;8.68;3.08;;;;;;;;;;5036956;28;20124;-85
2021/12/08 09:16:09;;;;;;;7.85;2.90;;;;;;;;;;5037258;28;20096;-80
2021/12/08 09:18:46;;;;;;;7.75;3.08;;;;;;;;;;5036676;28;20459;-84
2021/12/08 09:21:18;;;;;;;6.78;3.00;;;;;;;;;;5020913;28;20044;-89
2021/12/08 09:23:50;;;;;;;11.02;4.60;;;;;;;;;;5037205;28;20063;-84
2021/12/08 09:26:19;;;;;;;11.70;4.55;;;;;;;;;;5037458;28;20439;-86
2021/12/08 09:28:53;;;;;;;10.32;4.38;;;;;;;;;;5036856;28;20045;-90
2021/12/08 09:31:23;;;;;;;9.30;3.80;;;;;;;;;;5037685;28;20037;-84
2021/12/08 09:33:58;;;;;;;8.82;2.85;;;;;;;;;;5020611;28;20037;-85
2021/12/08 09:36:47;;;;;;;8.40;3.13;;;;;;;;;;5021121;28;20148;-91
2021/12/08 09:39:15;;;;;;;8.43;2.33;;;;;;;;;;5037259;28;20431;-84
2021/12/08 09:41:46;;;;;;;7.68;2.40;;;;;;;;;;5016992;28;20718;-85
2021/12/08 09:44:21;;;;;;;9.25;2.60;;;;;;;;;;5036639;28;20463;-90
2021/12/08 09:46:50;;;;;;;7.93;2.85;;;;;;;;;;5020518;28;20403;-85
2021/12/08 09:49:23;;;;;;;7.35;2.30;;;;;;;;;;5036944;28;20082;-80
2021/12/08 09:51:56;;;;;;;6.35;2.50;;;;;;;;;;5036588;28;20118;-81
2021/12/08 09:54:26;;;;;;;7.35;2.65;;;;;;;;;;5036365;28;20048;-82
2021/12/08 09:56:53;;;;;;;10.38;3.08;;;;;;;;;;5020523;28;20048;-83
2021/12/08 09:59:23;;;;;;;7.22;2.53;;;;;;;;;;5036613;28;20041;-85
2021/12/08 10:01:56;;;;;;;6.07;2.03;;;;;;;;;;5020370;28;20052;-83
2021/12/08 10:04:24;;;;;;;9.73;2.90;;;;;;;;;;5037097;28;20040;-85
2021/12/08 10:06:52;;;;;;;7.78;2.55;;;;;;;;;;5036215;28;20041;-84
2021/12/08 10:09:22;;;;;;;7.00;2.50;;;;;;;;;;5020066;28;20571;-84
2021/12/08 10:11:54;;;;;;;6.28;2.47;;;;;;;;;;5036444;28;20079;-84
2021/12/08 10:14:22;;;;;;;6.70;2.92;;;;;;;;;;5020887;28;20460;-84
2021/12/08 10:16:52;;;;;;;10.63;3.05;;;;;;;;;;5053904;28;20044;-82
2021/12/08 10:19:20;;;;;;;7.13;2.78;;;;;;;;;;5035505;28;20091;-83
2021/12/08 10:21:47;;;;;;;7.97;2.90;;;;;;;;;;5035592;28;20084;-87
2021/12/08 10:24:19;;;;;;;10.88;3.13;;;;;;;;;;5053985;28;20048;-76
2021/12/08 10:26:48;;;;;;;7.95;2.97;;;;;;;;;;5040479;28;20124;-88
2021/12/08 10:29:23;;;;;;;6.97;3.05;;;;;;;;;;5033592;28;20045;-85
2021/12/08 10:31:53;;;;;;;6.95;2.33;;;;;;;;;;5035041;28;20069;-87
2021/12/08 10:34:24;;;;;;;9.95;2.28;;;;;;;;;;4999932;28;20045;-84
2021/12/08 10:37:00;;;;;;;9.20;3.17;;;;;;;;;;4999804;28;20492;-80
2021/12/08 10:39:46;;;;;;;7.60;2.65;;;;;;;;;;5024555;28;20131;-85
2021/12/08 10:42:18;;;;;;;11.07;3.22;;;;;;;;;;5054305;28;20099;-84
2021/12/08 10:45:02;;;;;;;10.73;2.70;;;;;;;;;;5021127;28;20033;-83
2021/12/08 10:47:33;;;;;;;6.60;2.50;;;;;;;;;;5053662;28;20064;-83
2021/12/08 10:55:24;;;;;;;;;;;;;;;;;;5031986;28;20061;-78
2021/12/08 10:57:55;;;;;;;6.72;2.53;;;;;;;;;;5032587;28;19943;-78
2021/12/08 11:00:27;;;;;;;10.07;2.30;;;;;;;;;;5032357;28;20041;-76
2021/12/08 11:03:04;;;;;;;10.70;2.72;;;;;;;;;;5032662;28;20385;-76
2021/12/08 11:05:49;;;;;;;7.22;2.33;;;;;;;;;;5032304;28;20045;-78
2021/12/08 11:08:24;;;;;;;6.55;2.17;;;;;;;;;;4996313;28;20050;-78
2021/12/08 11:10:52;;;;;;;8.35;2.42;;;;;;;;;;5013778;28;20123;-76
2021/12/08 11:13:32;;;;;;;8.48;2.35;;;;;;;;;;4980078;28;20199;-77
2021/12/08 11:16:07;;;;;;;9.68;2.60;;;;;;;;;;4980873;28;20042;-78
2021/12/08 11:18:39;;;;;;;7.30;2.60;;;;;;;;;;4963764;28;20505;-77
2021/12/08 11:21:16;;;;;;;6.72;1.80;;;;;;;;;;5013773;28;20070;-79
2021/12/08 11:24:19;;;;;;;11.07;2.30;;;;;;;;;;5013737;28;20054;-76
2021/12/08 11:26:49;;;;;;;6.97;2.20;;;;;;;;;;5013867;28;20536;-77
2021/12/08 11:29:21;;;;;;;8.88;2.60;;;;;;;;;;5012703;28;20065;-76
2021/12/08 11:32:03;;;;;;;9.27;2.83;;;;;;;;;;5013245;28;20107;-78
2021/12/08 11:34:44;;;;;;;8.23;3.45;;;;;;;;;;4995715;28;20046;-78
2021/12/08 11:37:18;;;;;;;11.68;4.57;;;;;;;;;;5013510;28;20034;-77
2021/12/08 11:39:55;;;;;;;9.25;2.88;;;;;;;;;;5012871;28;20045;-76
2021/12/08 11:42:25;;;;;;;10.10;2.50;;;;;;;;;;5012836;28;20038;-76
2021/12/08 11:44:55;;;;;;;8.52;2.75;;;;;;;;;;5013535;28;20038;-77
2021/12/08 11:47:32;;;;;;;11.85;2.40;;;;;;;;;;5013060;28;20034;-78
2021/12/08 11:50:07;;;;;;;9.00;2.08;;;;;;;;;;5013065;28;20093;-78
2021/12/08 11:52:35;;;;;;;7.22;2.60;;;;;;;;;;5016934;28;20088;-77
2021/12/08 11:55:09;;;;;;;8.98;2.45;;;;;;;;;;5016720;28;20073;-78
2021/12/08 11:57:44;;;;;;;8.40;2.70;;;;;;;;;;4999888;28;20041;-78
2021/12/08 12:00:28;;;;;;;8.02;2.42;;;;;;;;;;4983600;28;20041;-78
2021/12/08 12:03:15;;;;;;;4.95;2.20;;;;;;;;;;5017411;28;20124;-76
2021/12/08 12:05:47;;;;;;;7.15;2.30;;;;;;;;;;5016694;28;20132;-78
2021/12/08 12:08:20;;;;;;;9.57;2.40;;;;;;;;;;4999556;28;20050;-77
2021/12/08 12:10:56;;;;;;;9.35;2.58;;;;;;;;;;5016764;28;20048;-77
2021/12/08 12:13:26;;;;;;;13.75;2.70;;;;;;;;;;4999636;28;20120;-77
2021/12/08 12:15:54;;;;;;;11.10;3.35;;;;;;;;;;4983325;28;20041;-76
2021/12/08 12:18:32;;;;;;;8.55;2.33;;;;;;;;;;5016431;28;20057;-78
2021/12/08 12:21:11;;;;;;;7.43;2.72;;;;;;;;;;5016897;28;20045;-76
2021/12/08 12:23:59;;;;;;;7.85;2.70;;;;;;;;;;5016708;28;20120;-76
2021/12/08 12:26:46;;;;;;;12.75;3.17;;;;;;;;;;5016247;28;20066;-78
2021/12/08 12:29:36;;;;;;;7.60;2.15;;;;;;;;;;4999194;28;20409;-77
2021/12/08 12:32:23;;;;;;;8.10;2.60;;;;;;;;;;5016544;28;20125;-78
2021/12/08 12:34:53;;;;;;;7.88;2.70;;;;;;;;;;5016586;28;20520;-77
2021/12/08 12:37:31;;;;;;;8.88;2.30;;;;;;;;;;5000433;28;20034;-77
2021/12/08 12:40:00;;;;;;;6.60;2.22;;;;;;;;;;4998621;28;20077;-78
2021/12/08 12:42:48;;;;;;;10.93;2.28;;;;;;;;;;4996255;28;20049;-78
2021/12/08 12:45:15;;;;;;;9.93;2.20;;;;;;;;;;5032931;28;20041;-78
2021/12/08 12:48:07;;;;;;;7.78;2.28;;;;;;;;;;5036139;28;20047;-78
2021/12/08 12:50:53;;;;;;;7.45;2.40;;;;;;;;;;5028519;28;20053;-76
2021/12/08 12:53:32;;;;;;;8.13;2.63;;;;;;;;;;5021066;28;20057;-76
2021/12/08 12:56:01;;;;;;;10.27;2.25;;;;;;;;;;5055890;28;20091;-78
2021/12/08 12:58:44;;;;;;;12.60;2.72;;;;;;;;;;5038056;28;20044;-76
2021/12/08 13:01:13;;;;;;;8.38;2.13;;;;;;;;;;5036676;28;20135;-76
2021/12/08 13:03:48;;;;;;;8.70;2.10;;;;;;;;;;5054408;28;20471;-77
2021/12/08 13:09:40;;;;;;;7.47;2.17;;;;;;;;;;5055660;28;20466;-77
2021/12/08 13:12:12;;;;;;;8.50;2.70;;;;;;;;;;5037655;28;20650;-78
2021/12/08 13:14:46;;;;;;;8.30;2.47;;;;;;;;;;5055659;28;20472;-77
2021/12/08 13:17:18;;;;;;;8.23;2.45;;;;;;;;;;5055482;28;20045;-77
2021/12/08 13:19:51;;;;;;;10.63;2.13;;;;;;;;;;5055644;28;20065;-79
2021/12/08 13:22:39;;;;;;;9.85;3.13;;;;;;;;;;5038022;28;20051;-79
2021/12/08 13:25:26;;;;;;;7.45;2.03;;;;;;;;;;5055415;28;20138;-77
2021/12/08 13:27:56;;;;;;;7.53;2.30;;;;;;;;;;5037529;28;20037;-76
2021/12/08 13:30:27;;;;;;;7.40;2.40;;;;;;;;;;5037000;28;20041;-77
2021/12/08 13:33:09;;;;;;;7.03;2.17;;;;;;;;;;5037383;28;20140;-77
2021/12/08 13:35:37;;;;;;;10.38;2.17;;;;;;;;;;5055208;28;20049;-77
2021/12/08 13:38:05;;;;;;;7.32;2.10;;;;;;;;;;5037207;28;20127;-77
2021/12/08 13:40:43;;;;;;;9.23;2.30;;;;;;;;;;5037276;28;20052;-77
2021/12/08 13:43:42;;;;;;;8.70;2.30;;;;;;;;;;5055029;28;20041;-76
2021/12/08 13:46:11;;;;;;;6.28;1.83;;;;;;;;;;5055072;28;20043;-77
2021/12/08 13:49:05;;;;;;;6.53;2.20;;;;;;;;;;5036780;28;20055;-77
2021/12/08 13:51:37;;;;;;;8.00;2.63;;;;;;;;;;5054638;28;20077;-76
2021/12/08 13:54:25;;;;;;;6.23;1.93;;;;;;;;;;5036594;28;20071;-78
2021/12/08 13:56:54;;;;;;;5.43;2.00;;;;;;;;;;5054773;28;20128;-76
2021/12/08 13:59:55;;;;;;;6.65;2.20;;;;;;;;;;5054249;28;20044;-77
2021/12/08 14:02:48;;;;;;;6.00;2.15;;;;;;;;;;5029813;28;20484;-77
2021/12/08 14:05:23;;;;;;;5.70;1.75;;;;;;;;;;5054610;28;20103;-77
2021/12/08 14:07:50;;;;;;;7.35;3.72;;;;;;;;;;5036245;28;20047;-77
2021/12/08 14:10:44;;;;;;;6.40;1.88;;;;;;;;;;5054306;28;20140;-79
2021/12/08 14:13:17;;;;;;;2.88;1.58;;;;;;;;;;5051912;28;20095;-77
2021/12/08 14:15:54;;;;;;;5.00;1.60;;;;;;;;;;5054205;28;20128;-78
2021/12/08 14:18:25;;;;;;;6.07;1.85;;;;;;;;;;5036343;28;20044;-76
2021/12/08 14:21:06;;;;;;;6.50;2.40;;;;;;;;;;5054198;28;20527;-77
2021/12/08 14:23:36;;;;;;;7.35;2.50;;;;;;;;;;5036448;28;20051;-78
2021/12/08 14:26:09;;;;;;;5.47;2.10;;;;;;;;;;5053994;28;20043;-77
2021/12/08 14:29:07;;;;;;;6.10;1.73;;;;;;;;;;5036571;28;20043;-78
2021/12/08 14:31:44;;;;;;;8.43;2.28;;;;;;;;;;5053334;28;20044;-76
2021/12/08 14:34:21;;;;;;;5.65;1.80;;;;;;;;;;5053796;28;20193;-78
2021/12/08 14:36:52;;;;;;;4.15;1.42;;;;;;;;;;5035975;28;20041;-78
2021/12/08 14:39:36;;;;;;;4.85;1.77;;;;;;;;;;5053769;28;20106;-76
2021/12/08 14:42:11;;;;;;;4.97;1.52;;;;;;;;;;5053359;28;20120;-78
2021/12/08 14:44:52;;;;;;;8.75;2.33;;;;;;;;;;5052914;28;20037;-76
2021/12/08 14:47:23;;;;;;;6.28;1.55;;;;;;;;;;5053262;28;20116;-76
2021/12/08 14:49:54;;;;;;;8.07;1.77;;;;;;;;;;5053731;28;20051;-76
2021/12/08 14:52:24;;;;;;;5.57;2.13;;;;;;;;;;5035629;28;20093;-76
2021/12/08 14:55:00;;;;;;;8.40;1.95;;;;;;;;;;5053239;28;20053;-75
2021/12/08 14:57:35;;;;;;;4.28;1.77;;;;;;;;;;5053931;28;20098;-77
2021/12/08 15:00:11;;;;;;;7.05;2.05;;;;;;;;;;5036199;28;20137;-77
2021/12/08 15:02:47;;;;;;;4.15;1.65;;;;;;;;;;5053851;28;20076;-78
2021/12/08 15:05:19;;;;;;;4.35;1.98;;;;;;;;;;5032494;28;20144;-76
2021/12/08 15:07:47;;;;;;;4.30;1.90;;;;;;;;;;5053262;28;20045;-77
2021/12/08 15:10:29;;;;;;;5.25;1.77;;;;;;;;;;5035437;28;20048;-75
2021/12/08 15:13:19;;;;;;;7.32;2.42;;;;;;;;;;5053633;28;20044;-77
2021/12/08 15:15:48;;;;;;;6.07;2.60;;;;;;;;;;5053188;28;20586;-77
2021/12/08 15:18:21;;;;;;;10.68;2.22;;;;;;;;;;5035164;28;20033;-76
2021/12/08 15:21:04;;;;;;;5.25;1.92;;;;;;;;;;5035512;28;20049;-77
2021/12/08 15:23:50;;;;;;;12.35;2.75;;;;;;;;;;5053607;28;20045;-77
2021/12/08 15:26:19;;;;;;;6.40;2.60;;;;;;;;;;5035048;28;20041;-75
2021/12/08 15:28:48;;;;;;;7.97;3.47;;;;;;;;;;5018965;28;20428;-77
2021/12/08 15:31:30;;;;;;;11.02;4.43;;;;;;;;;;5034586;28;20055;-75
2021/12/08 15:33:59;;;;;;;10.07;3.30;;;;;;;;;;5052959;28;20456;-75
2021/12/08 15:36:29;;;;;;;9.00;2.95;;;;;;;;;;5053195;28;20130;-77
2021/12/08 15:39:00;;;;;;;13.77;5.30;;;;;;;;;;5035841;28;20496;-75
2021/12/08 15:41:31;;;;;;;18.17;7.88;;;;;;;;;;5035993;28;20144;-77
2021/12/08 15:44:13;;;;;;;26.50;9.93;;;;;;;;;;5052971;28;20117;-75
2021/12/08 15:46:43;;;;;;;23.08;9.75;;;;;;;;;;5052786;28;20404;-77
2021/12/08 15:49:17;;;;;;;20.95;8.45;;;;;;;;;;5052940;28;20519;-75
2021/12/08 15:51:46;;;;;;;20.95;8.68;;;;;;;;;;5035404;28;20413;-77
2021/12/08 15:54:22;;;;;;;20.87;7.60;;;;;;;;;;5034987;28;20522;-75
2021/12/08 15:56:59;;;;;;;15.70;5.78;;;;;;;;;;5052844;28;20045;-77
2021/12/08 15:59:28;;;;;;;13.43;5.53;;;;;;;;;;5052940;28;20041;-76
2021/12/08 16:01:59;;;;;;;10.27;4.57;;;;;;;;;;5053600;28;20110;-76
2021/12/08 16:04:40;;;;;;;12.20;4.93;;;;;;;;;;5052604;28;20048;-76
2021/12/08 16:07:27;;;;;;;14.73;5.50;;;;;;;;;;5036192;28;20455;-75
2021/12/08 16:09:55;;;;;;;16.05;5.85;;;;;;;;;;5052885;28;20072;-77